TAIP22 YSNW-YMES
Flight info
| Callsign | TAIP22 |
|---|---|
| Flight time | 2h 21m |
| Altitude | 3500 |
| Route | URBOB W436 OTKED DCT ESL |
| Aircraft | H145/L-SDFGRY/C |
Departure
| Time | 2026-04-19 03:46 |
|---|---|
| Airport | Naval Air Station Nowra - HMAS Albatross (YSNW) |
Arrival
| Time | 2026-04-19 06:08 |
|---|---|
| Airport | RAAF Base East Sale (YMES) |
| Time | Latitude | Longitude | Altitude | Speed | Heading |
|---|---|---|---|---|---|
| 2026-04-19 03:32 | -34.94641 | 150.54706 | 355 ft | 0 kts | 148° |
| 2026-04-19 03:41 | -34.94646 | 150.54705 | 357 ft | 1 kts | 11° |
| 2026-04-19 03:42 | -34.94646 | 150.54706 | 357 ft | 0 kts | 338° |
| 2026-04-19 03:42 | -34.94617 | 150.54727 | 456 ft | 9 kts | 283° |
| 2026-04-19 03:42 | -34.94621 | 150.54658 | 395 ft | 25 kts | 196° |
| 2026-04-19 03:43 | -34.94690 | 150.54605 | 386 ft | 8 kts | 143° |
| 2026-04-19 03:43 | -34.94915 | 150.54704 | 464 ft | 66 kts | 147° |
| 2026-04-19 03:43 | -34.95404 | 150.55000 | 474 ft | 83 kts | 145° |
| 2026-04-19 03:43 | -34.95915 | 150.55390 | 425 ft | 93 kts | 146° |
| 2026-04-19 03:44 | -34.96452 | 150.55776 | 506 ft | 84 kts | 151° |
| 2026-04-19 03:44 | -34.96905 | 150.56018 | 624 ft | 60 kts | 160° |
| 2026-04-19 03:44 | -34.97294 | 150.56226 | 772 ft | 71 kts | 158° |
| 2026-04-19 03:44 | -34.97799 | 150.56571 | 785 ft | 94 kts | 150° |
| 2026-04-19 03:45 | -34.98385 | 150.57015 | 706 ft | 108 kts | 151° |
| 2026-04-19 03:45 | -34.99024 | 150.57474 | 733 ft | 109 kts | 150° |
| 2026-04-19 03:45 | -34.99703 | 150.57953 | 742 ft | 116 kts | 153° |
| 2026-04-19 03:45 | -35.00419 | 150.58435 | 789 ft | 117 kts | 156° |
| 2026-04-19 03:46 | -35.01216 | 150.58568 | 822 ft | 118 kts | 187° |
| 2026-04-19 03:46 | -35.01995 | 150.58350 | 953 ft | 112 kts | 191° |
| 2026-04-19 03:46 | -35.02741 | 150.58219 | 1107 ft | 110 kts | 188° |
| 2026-04-19 03:46 | -35.03521 | 150.57966 | 1106 ft | 123 kts | 193° |
| 2026-04-19 03:47 | -35.04357 | 150.57639 | 1093 ft | 128 kts | 197° |
| 2026-04-19 03:47 | -35.05206 | 150.57354 | 1155 ft | 125 kts | 191° |
| 2026-04-19 03:47 | -35.06029 | 150.57084 | 1226 ft | 121 kts | 196° |
| 2026-04-19 03:47 | -35.06835 | 150.56784 | 1279 ft | 122 kts | 193° |
| 2026-04-19 03:48 | -35.07667 | 150.56502 | 1248 ft | 126 kts | 195° |
| 2026-04-19 03:48 | -35.08507 | 150.56209 | 1281 ft | 124 kts | 197° |
| 2026-04-19 03:48 | -35.09318 | 150.55871 | 1323 ft | 123 kts | 196° |
| 2026-04-19 03:48 | -35.10141 | 150.55575 | 1351 ft | 123 kts | 193° |
| 2026-04-19 03:49 | -35.10952 | 150.55285 | 1408 ft | 117 kts | 196° |
| 2026-04-19 03:49 | -35.11718 | 150.54996 | 1471 ft | 113 kts | 196° |
| 2026-04-19 03:49 | -35.12475 | 150.54747 | 1476 ft | 116 kts | 191° |
| 2026-04-19 03:49 | -35.13233 | 150.54461 | 1495 ft | 118 kts | 197° |
| 2026-04-19 03:50 | -35.14030 | 150.54115 | 1432 ft | 125 kts | 200° |
| 2026-04-19 03:50 | -35.14829 | 150.53717 | 1453 ft | 122 kts | 200° |
| 2026-04-19 03:50 | -35.15584 | 150.53308 | 1502 ft | 115 kts | 202° |
| 2026-04-19 03:50 | -35.16303 | 150.52890 | 1554 ft | 117 kts | 202° |
| 2026-04-19 03:51 | -35.17054 | 150.52454 | 1499 ft | 121 kts | 202° |
| 2026-04-19 03:51 | -35.17816 | 150.52049 | 1472 ft | 119 kts | 200° |
| 2026-04-19 03:51 | -35.18317 | 150.51804 | 1462 ft | 115 kts | 199° |
| 2026-04-19 03:51 | -35.19061 | 150.51453 | 1494 ft | 116 kts | 198° |
| 2026-04-19 03:52 | -35.19830 | 150.51066 | 1486 ft | 121 kts | 200° |
| 2026-04-19 03:52 | -35.20604 | 150.50657 | 1460 ft | 123 kts | 201° |
| 2026-04-19 03:52 | -35.21385 | 150.50244 | 1438 ft | 120 kts | 201° |
| 2026-04-19 03:52 | -35.22130 | 150.49857 | 1452 ft | 116 kts | 200° |
| 2026-04-19 03:53 | -35.22872 | 150.49485 | 1463 ft | 114 kts | 200° |
| 2026-04-19 03:53 | -35.23625 | 150.49113 | 1471 ft | 119 kts | 200° |
| 2026-04-19 03:53 | -35.24401 | 150.48718 | 1430 ft | 122 kts | 202° |
| 2026-04-19 03:53 | -35.25178 | 150.48323 | 1464 ft | 120 kts | 200° |
| 2026-04-19 03:54 | -35.25943 | 150.47934 | 1483 ft | 119 kts | 200° |
| 2026-04-19 03:54 | -35.26717 | 150.47518 | 1469 ft | 123 kts | 202° |
| 2026-04-19 03:54 | -35.27487 | 150.47089 | 1474 ft | 123 kts | 200° |
| 2026-04-19 03:54 | -35.28251 | 150.46642 | 1420 ft | 121 kts | 202° |
| 2026-04-19 03:55 | -35.29003 | 150.46225 | 1394 ft | 116 kts | 201° |
| 2026-04-19 03:55 | -35.29750 | 150.45865 | 1370 ft | 117 kts | 200° |
| 2026-04-19 03:55 | -35.30507 | 150.45510 | 1419 ft | 114 kts | 198° |
| 2026-04-19 03:55 | -35.31223 | 150.45167 | 1613 ft | 108 kts | 199° |
| 2026-04-19 03:56 | -35.31944 | 150.44767 | 1626 ft | 121 kts | 202° |
| 2026-04-19 03:56 | -35.32730 | 150.44315 | 1568 ft | 129 kts | 202° |
| 2026-04-19 03:56 | -35.33554 | 150.43920 | 1529 ft | 124 kts | 194° |
| 2026-04-19 03:56 | -35.34370 | 150.43653 | 1554 ft | 121 kts | 193° |
| 2026-04-19 03:57 | -35.35199 | 150.43386 | 1547 ft | 125 kts | 193° |
| 2026-04-19 03:57 | -35.36056 | 150.43071 | 1438 ft | 131 kts | 195° |
| 2026-04-19 03:57 | -35.36900 | 150.42749 | 1450 ft | 126 kts | 193° |
| 2026-04-19 03:57 | -35.37741 | 150.42507 | 1467 ft | 122 kts | 191° |
| 2026-04-19 03:58 | -35.38560 | 150.42261 | 1448 ft | 120 kts | 193° |
| 2026-04-19 03:58 | -35.39361 | 150.41985 | 1476 ft | 119 kts | 194° |
| 2026-04-19 03:58 | -35.40158 | 150.41699 | 1523 ft | 120 kts | 195° |
| 2026-04-19 03:58 | -35.40978 | 150.41419 | 1450 ft | 122 kts | 193° |
| 2026-04-19 03:59 | -35.41788 | 150.41151 | 1435 ft | 120 kts | 194° |
| 2026-04-19 03:59 | -35.42582 | 150.40853 | 1458 ft | 119 kts | 195° |
| 2026-04-19 03:59 | -35.43369 | 150.40535 | 1459 ft | 120 kts | 197° |
| 2026-04-19 03:59 | -35.44168 | 150.40200 | 1458 ft | 123 kts | 197° |
| 2026-04-19 04:00 | -35.44991 | 150.39868 | 1446 ft | 126 kts | 195° |
| 2026-04-19 04:00 | -35.45829 | 150.39541 | 1411 ft | 126 kts | 196° |
| 2026-04-19 04:00 | -35.46660 | 150.39232 | 1462 ft | 125 kts | 194° |
| 2026-04-19 04:00 | -35.47502 | 150.38978 | 1434 ft | 124 kts | 191° |
| 2026-04-19 04:01 | -35.48338 | 150.38747 | 1414 ft | 121 kts | 192° |
| 2026-04-19 04:01 | -35.49888 | 150.38200 | 1452 ft | 115 kts | 198° |
| 2026-04-19 04:01 | -35.50634 | 150.37849 | 1483 ft | 114 kts | 200° |
| 2026-04-19 04:02 | -35.51384 | 150.37511 | 1486 ft | 117 kts | 196° |
| 2026-04-19 04:02 | -35.52187 | 150.37234 | 1449 ft | 123 kts | 191° |
| 2026-04-19 04:02 | -35.53031 | 150.36987 | 1393 ft | 125 kts | 192° |
| 2026-04-19 04:02 | -35.53884 | 150.36734 | 1352 ft | 127 kts | 190° |
| 2026-04-19 04:03 | -35.54746 | 150.36476 | 1279 ft | 128 kts | 191° |
| 2026-04-19 04:03 | -35.55589 | 150.36170 | 1367 ft | 117 kts | 198° |
| 2026-04-19 04:03 | -35.56354 | 150.35841 | 1440 ft | 118 kts | 199° |
| 2026-04-19 04:03 | -35.57122 | 150.35444 | 1422 ft | 120 kts | 203° |
| 2026-04-19 04:04 | -35.57855 | 150.35000 | 1495 ft | 116 kts | 205° |
| 2026-04-19 04:04 | -35.58567 | 150.34527 | 1596 ft | 117 kts | 205° |
| 2026-04-19 04:04 | -35.59324 | 150.34087 | 1525 ft | 124 kts | 201° |
| 2026-04-19 04:04 | -35.60133 | 150.33733 | 1483 ft | 124 kts | 195° |
| 2026-04-19 04:05 | -35.60953 | 150.33371 | 1476 ft | 126 kts | 196° |
| 2026-04-19 04:05 | -35.61781 | 150.33018 | 1456 ft | 126 kts | 194° |
| 2026-04-19 04:05 | -35.62618 | 150.32697 | 1406 ft | 126 kts | 194° |
| 2026-04-19 04:05 | -35.63416 | 150.32329 | 1398 ft | 123 kts | 200° |
| 2026-04-19 04:06 | -35.64200 | 150.31924 | 1385 ft | 122 kts | 200° |
| 2026-04-19 04:06 | -35.64964 | 150.31536 | 1429 ft | 115 kts | 198° |
| 2026-04-19 04:06 | -35.65703 | 150.31209 | 1489 ft | 112 kts | 198° |
| 2026-04-19 04:06 | -35.66458 | 150.30858 | 1498 ft | 119 kts | 200° |
| 2026-04-19 04:07 | -35.67214 | 150.30384 | 1504 ft | 123 kts | 206° |
| 2026-04-19 04:07 | -35.67940 | 150.29853 | 1538 ft | 119 kts | 207° |
| 2026-04-19 04:07 | -35.68683 | 150.29410 | 1498 ft | 121 kts | 201° |
| 2026-04-19 04:07 | -35.69470 | 150.29013 | 1452 ft | 123 kts | 198° |
| 2026-04-19 04:08 | -35.70270 | 150.28615 | 1390 ft | 125 kts | 200° |
| 2026-04-19 04:08 | -35.71072 | 150.28195 | 1311 ft | 125 kts | 200° |
| 2026-04-19 04:08 | -35.71859 | 150.27778 | 1294 ft | 122 kts | 200° |
| 2026-04-19 04:08 | -35.72642 | 150.27392 | 1322 ft | 120 kts | 200° |
| 2026-04-19 04:09 | -35.73406 | 150.26998 | 1357 ft | 117 kts | 201° |
| 2026-04-19 04:09 | -35.74133 | 150.26563 | 1391 ft | 115 kts | 204° |
| 2026-04-19 04:09 | -35.74862 | 150.26149 | 1436 ft | 116 kts | 201° |
| 2026-04-19 04:09 | -35.75607 | 150.25719 | 1445 ft | 120 kts | 202° |
| 2026-04-19 04:10 | -35.76370 | 150.25276 | 1439 ft | 123 kts | 201° |
| 2026-04-19 04:10 | -35.77144 | 150.24823 | 1427 ft | 124 kts | 203° |
| 2026-04-19 04:10 | -35.77926 | 150.24381 | 1424 ft | 124 kts | 201° |
| 2026-04-19 04:10 | -35.78718 | 150.23967 | 1415 ft | 123 kts | 200° |
| 2026-04-19 04:11 | -35.79488 | 150.23500 | 1426 ft | 123 kts | 207° |
| 2026-04-19 04:11 | -35.80207 | 150.22974 | 1454 ft | 121 kts | 207° |
| 2026-04-19 04:11 | -35.80920 | 150.22419 | 1458 ft | 122 kts | 210° |
| 2026-04-19 04:11 | -35.81616 | 150.21812 | 1436 ft | 123 kts | 212° |
| 2026-04-19 04:12 | -35.82302 | 150.21195 | 1435 ft | 118 kts | 211° |
| 2026-04-19 04:12 | -35.83003 | 150.20671 | 1429 ft | 118 kts | 206° |
| 2026-04-19 04:12 | -35.83701 | 150.20159 | 1461 ft | 117 kts | 208° |
| 2026-04-19 04:12 | -35.84386 | 150.19626 | 1486 ft | 117 kts | 206° |
| 2026-04-19 04:13 | -35.85095 | 150.19115 | 1463 ft | 119 kts | 206° |
| 2026-04-19 04:13 | -35.85808 | 150.18578 | 1451 ft | 121 kts | 210° |
| 2026-04-19 04:13 | -35.86516 | 150.18033 | 1501 ft | 120 kts | 207° |
| 2026-04-19 04:13 | -35.87233 | 150.17500 | 1495 ft | 121 kts | 208° |
| 2026-04-19 04:14 | -35.87962 | 150.16962 | 1484 ft | 124 kts | 208° |
| 2026-04-19 04:14 | -35.88708 | 150.16408 | 1476 ft | 126 kts | 208° |
| 2026-04-19 04:14 | -35.89435 | 150.15817 | 1452 ft | 127 kts | 211° |
| 2026-04-19 04:14 | -35.90194 | 150.15280 | 1507 ft | 124 kts | 202° |
| 2026-04-19 04:15 | -35.91008 | 150.14939 | 1532 ft | 124 kts | 191° |
| 2026-04-19 04:15 | -35.91884 | 150.14799 | 1446 ft | 131 kts | 181° |
| 2026-04-19 04:15 | -35.92780 | 150.14672 | 1477 ft | 125 kts | 185° |
| 2026-04-19 04:15 | -35.93638 | 150.14585 | 1530 ft | 123 kts | 185° |
| 2026-04-19 04:16 | -35.94488 | 150.14370 | 1535 ft | 125 kts | 188° |
| 2026-04-19 04:16 | -35.95348 | 150.14203 | 1548 ft | 125 kts | 185° |
| 2026-04-19 04:16 | -35.96209 | 150.14070 | 1583 ft | 125 kts | 184° |
| 2026-04-19 04:16 | -35.97071 | 150.13944 | 1593 ft | 126 kts | 186° |
| 2026-04-19 04:17 | -35.97966 | 150.13838 | 1493 ft | 132 kts | 184° |
| 2026-04-19 04:17 | -35.98890 | 150.13773 | 1482 ft | 135 kts | 179° |
| 2026-04-19 04:17 | -35.99822 | 150.13656 | 1457 ft | 130 kts | 186° |
| 2026-04-19 04:17 | -36.00697 | 150.13481 | 1490 ft | 125 kts | 187° |
| 2026-04-19 04:18 | -36.01569 | 150.13309 | 1507 ft | 129 kts | 184° |
| 2026-04-19 04:18 | -36.02468 | 150.13190 | 1463 ft | 130 kts | 184° |
| 2026-04-19 04:18 | -36.03366 | 150.13076 | 1431 ft | 129 kts | 183° |
| 2026-04-19 04:18 | -36.04253 | 150.12920 | 1441 ft | 128 kts | 187° |
| 2026-04-19 04:19 | -36.05124 | 150.12739 | 1485 ft | 127 kts | 186° |
| 2026-04-19 04:19 | -36.06000 | 150.12600 | 1471 ft | 130 kts | 185° |
| 2026-04-19 04:19 | -36.06909 | 150.12469 | 1433 ft | 130 kts | 185° |
| 2026-04-19 04:19 | -36.07778 | 150.12346 | 1467 ft | 125 kts | 184° |
| 2026-04-19 04:20 | -36.08634 | 150.12239 | 1523 ft | 121 kts | 183° |
| 2026-04-19 04:20 | -36.09483 | 150.12119 | 1527 ft | 124 kts | 185° |
| 2026-04-19 04:20 | -36.10351 | 150.11996 | 1535 ft | 127 kts | 184° |
| 2026-04-19 04:20 | -36.11242 | 150.11907 | 1478 ft | 129 kts | 181° |
| 2026-04-19 04:21 | -36.12110 | 150.11855 | 1522 ft | 122 kts | 180° |
| 2026-04-19 04:21 | -36.12961 | 150.11797 | 1511 ft | 124 kts | 182° |
| 2026-04-19 04:21 | -36.13806 | 150.11761 | 1562 ft | 121 kts | 178° |
| 2026-04-19 04:21 | -36.14661 | 150.11828 | 1530 ft | 124 kts | 174° |
| 2026-04-19 04:22 | -36.15523 | 150.11921 | 1506 ft | 125 kts | 174° |
| 2026-04-19 04:22 | -36.16386 | 150.11987 | 1551 ft | 124 kts | 175° |
| 2026-04-19 04:22 | -36.17257 | 150.12047 | 1556 ft | 127 kts | 174° |
| 2026-04-19 04:22 | -36.18150 | 150.12140 | 1488 ft | 130 kts | 173° |
| 2026-04-19 04:23 | -36.19049 | 150.12225 | 1465 ft | 128 kts | 175° |
| 2026-04-19 04:23 | -36.19925 | 150.12266 | 1492 ft | 124 kts | 177° |
| 2026-04-19 04:23 | -36.20781 | 150.12267 | 1551 ft | 122 kts | 180° |
| 2026-04-19 04:23 | -36.21637 | 150.12298 | 1550 ft | 126 kts | 173° |
| 2026-04-19 04:24 | -36.22528 | 150.12475 | 1522 ft | 132 kts | 171° |
| 2026-04-19 04:24 | -36.23402 | 150.12572 | 1566 ft | 121 kts | 174° |
| 2026-04-19 04:24 | -36.24224 | 150.12575 | 1535 ft | 117 kts | 182° |
| 2026-04-19 04:24 | -36.25067 | 150.12456 | 1509 ft | 124 kts | 186° |
| 2026-04-19 04:25 | -36.25938 | 150.12298 | 1513 ft | 129 kts | 186° |
| 2026-04-19 04:25 | -36.26825 | 150.12156 | 1502 ft | 128 kts | 185° |
| 2026-04-19 04:25 | -36.27703 | 150.12008 | 1498 ft | 125 kts | 186° |
| 2026-04-19 04:25 | -36.28560 | 150.11851 | 1508 ft | 127 kts | 186° |
| 2026-04-19 04:26 | -36.29414 | 150.11719 | 1549 ft | 122 kts | 185° |
| 2026-04-19 04:26 | -36.30232 | 150.11446 | 1502 ft | 120 kts | 200° |
| 2026-04-19 04:26 | -36.30986 | 150.11072 | 1520 ft | 114 kts | 198° |
| 2026-04-19 04:26 | -36.31727 | 150.10707 | 1507 ft | 117 kts | 198° |
| 2026-04-19 04:27 | -36.32524 | 150.10354 | 1458 ft | 125 kts | 195° |
| 2026-04-19 04:27 | -36.33367 | 150.10070 | 1474 ft | 126 kts | 193° |
| 2026-04-19 04:27 | -36.34207 | 150.09788 | 1469 ft | 126 kts | 195° |
| 2026-04-19 04:27 | -36.35040 | 150.09460 | 1530 ft | 122 kts | 195° |
| 2026-04-19 04:28 | -36.35844 | 150.09166 | 1504 ft | 123 kts | 194° |
| 2026-04-19 04:28 | -36.36645 | 150.08833 | 1517 ft | 117 kts | 195° |
| 2026-04-19 04:28 | -36.37409 | 150.08535 | 1512 ft | 117 kts | 195° |
| 2026-04-19 04:28 | -36.38202 | 150.08238 | 1504 ft | 120 kts | 196° |
| 2026-04-19 04:29 | -36.38999 | 150.07920 | 1521 ft | 122 kts | 195° |
| 2026-04-19 04:29 | -36.39805 | 150.07588 | 1527 ft | 122 kts | 198° |
| 2026-04-19 04:29 | -36.40577 | 150.07223 | 1515 ft | 113 kts | 198° |
| 2026-04-19 04:29 | -36.41333 | 150.06923 | 1490 ft | 115 kts | 194° |
| 2026-04-19 04:30 | -36.42113 | 150.06647 | 1507 ft | 117 kts | 195° |
| 2026-04-19 04:30 | -36.42900 | 150.06327 | 1520 ft | 121 kts | 195° |
| 2026-04-19 04:30 | -36.43707 | 150.05957 | 1527 ft | 124 kts | 200° |
| 2026-04-19 04:30 | -36.44491 | 150.05564 | 1555 ft | 120 kts | 198° |
| 2026-04-19 04:31 | -36.45298 | 150.05227 | 1528 ft | 123 kts | 193° |
| 2026-04-19 04:31 | -36.46138 | 150.05011 | 1517 ft | 125 kts | 188° |
| 2026-04-19 04:31 | -36.46996 | 150.04839 | 1524 ft | 124 kts | 187° |
| 2026-04-19 04:31 | -36.47844 | 150.04679 | 1519 ft | 123 kts | 191° |
| 2026-04-19 04:32 | -36.48685 | 150.04469 | 1536 ft | 123 kts | 190° |
| 2026-04-19 04:32 | -36.49529 | 150.04249 | 1520 ft | 126 kts | 191° |
| 2026-04-19 04:32 | -36.50370 | 150.04031 | 1499 ft | 122 kts | 191° |
| 2026-04-19 04:32 | -36.51193 | 150.03828 | 1533 ft | 119 kts | 190° |
| 2026-04-19 04:33 | -36.52007 | 150.03603 | 1537 ft | 120 kts | 192° |
| 2026-04-19 04:33 | -36.52830 | 150.03390 | 1514 ft | 120 kts | 189° |
| 2026-04-19 04:33 | -36.53639 | 150.03197 | 1526 ft | 118 kts | 189° |
| 2026-04-19 04:33 | -36.54456 | 150.03006 | 1547 ft | 121 kts | 189° |
| 2026-04-19 04:34 | -36.55292 | 150.02786 | 1540 ft | 122 kts | 191° |
| 2026-04-19 04:34 | -36.56128 | 150.02587 | 1521 ft | 123 kts | 189° |
| 2026-04-19 04:34 | -36.56968 | 150.02385 | 1501 ft | 123 kts | 189° |
| 2026-04-19 04:34 | -36.57793 | 150.02158 | 1506 ft | 121 kts | 191° |
| 2026-04-19 04:35 | -36.58613 | 150.01950 | 1512 ft | 119 kts | 190° |
| 2026-04-19 04:35 | -36.59422 | 150.01737 | 1499 ft | 120 kts | 191° |
| 2026-04-19 04:35 | -36.60241 | 150.01519 | 1484 ft | 120 kts | 190° |
| 2026-04-19 04:35 | -36.61061 | 150.01318 | 1494 ft | 120 kts | 192° |
| 2026-04-19 04:36 | -36.61878 | 150.01108 | 1526 ft | 120 kts | 191° |
| 2026-04-19 04:36 | -36.62696 | 150.00903 | 1525 ft | 120 kts | 190° |
| 2026-04-19 04:36 | -36.63517 | 150.00696 | 1520 ft | 121 kts | 190° |
| 2026-04-19 04:36 | -36.64345 | 150.00489 | 1493 ft | 121 kts | 190° |
| 2026-04-19 04:37 | -36.65166 | 150.00286 | 1511 ft | 120 kts | 190° |
| 2026-04-19 04:37 | -36.65985 | 150.00084 | 1520 ft | 120 kts | 190° |
| 2026-04-19 04:37 | -36.66810 | 149.99878 | 1538 ft | 124 kts | 190° |
| 2026-04-19 04:37 | -36.67663 | 149.99623 | 1473 ft | 128 kts | 193° |
| 2026-04-19 04:38 | -36.68215 | 149.99468 | 1518 ft | 122 kts | 190° |
| 2026-04-19 04:38 | -36.69060 | 149.99308 | 1515 ft | 124 kts | 189° |
| 2026-04-19 04:38 | -36.69901 | 149.99081 | 1506 ft | 123 kts | 190° |
| 2026-04-19 04:38 | -36.70735 | 149.98915 | 1542 ft | 119 kts | 188° |
| 2026-04-19 04:39 | -36.71556 | 149.98689 | 1525 ft | 120 kts | 190° |
| 2026-04-19 04:39 | -36.72381 | 149.98506 | 1498 ft | 120 kts | 189° |
| 2026-04-19 04:39 | -36.73192 | 149.98289 | 1524 ft | 119 kts | 192° |
| 2026-04-19 04:39 | -36.74007 | 149.98064 | 1535 ft | 122 kts | 191° |
| 2026-04-19 04:40 | -36.74839 | 149.97843 | 1523 ft | 121 kts | 191° |
| 2026-04-19 04:40 | -36.75663 | 149.97607 | 1485 ft | 121 kts | 191° |
| 2026-04-19 04:40 | -36.76481 | 149.97380 | 1519 ft | 121 kts | 190° |
| 2026-04-19 04:40 | -36.77303 | 149.97170 | 1556 ft | 120 kts | 190° |
| 2026-04-19 04:41 | -36.78129 | 149.96971 | 1563 ft | 124 kts | 191° |
| 2026-04-19 04:41 | -36.78968 | 149.96752 | 1559 ft | 124 kts | 190° |
| 2026-04-19 04:41 | -36.79825 | 149.96575 | 1551 ft | 122 kts | 188° |
| 2026-04-19 04:41 | -36.80648 | 149.96388 | 1551 ft | 121 kts | 190° |
| 2026-04-19 04:42 | -36.81472 | 149.96177 | 1524 ft | 121 kts | 190° |
| 2026-04-19 04:42 | -36.82294 | 149.95969 | 1531 ft | 120 kts | 190° |
| 2026-04-19 04:42 | -36.83117 | 149.95760 | 1536 ft | 121 kts | 190° |
| 2026-04-19 04:42 | -36.83939 | 149.95548 | 1538 ft | 121 kts | 191° |
| 2026-04-19 04:43 | -36.84759 | 149.95335 | 1535 ft | 120 kts | 191° |
| 2026-04-19 04:43 | -36.85580 | 149.95119 | 1545 ft | 120 kts | 191° |
| 2026-04-19 04:43 | -36.86398 | 149.94903 | 1548 ft | 120 kts | 190° |
| 2026-04-19 04:43 | -36.87211 | 149.94686 | 1535 ft | 120 kts | 191° |
| 2026-04-19 04:44 | -36.88024 | 149.94466 | 1524 ft | 119 kts | 191° |
| 2026-04-19 04:44 | -36.88838 | 149.94245 | 1528 ft | 120 kts | 191° |
| 2026-04-19 04:44 | -36.89655 | 149.94019 | 1529 ft | 120 kts | 192° |
| 2026-04-19 04:44 | -36.90472 | 149.93790 | 1534 ft | 120 kts | 191° |
| 2026-04-19 04:45 | -36.91280 | 149.93561 | 1560 ft | 120 kts | 191° |
| 2026-04-19 04:45 | -36.92097 | 149.93327 | 1576 ft | 120 kts | 192° |
| 2026-04-19 04:45 | -36.92909 | 149.93092 | 1590 ft | 120 kts | 192° |
| 2026-04-19 04:45 | -36.93720 | 149.92859 | 1602 ft | 119 kts | 191° |
| 2026-04-19 04:46 | -36.94542 | 149.92696 | 1586 ft | 120 kts | 186° |
| 2026-04-19 04:46 | -36.95384 | 149.92619 | 1523 ft | 122 kts | 185° |
| 2026-04-19 04:46 | -36.96214 | 149.92494 | 1552 ft | 119 kts | 186° |
| 2026-04-19 04:46 | -36.97027 | 149.92315 | 1547 ft | 119 kts | 190° |
| 2026-04-19 04:47 | -36.97841 | 149.92118 | 1539 ft | 118 kts | 191° |
| 2026-04-19 04:47 | -36.98646 | 149.91903 | 1544 ft | 119 kts | 191° |
| 2026-04-19 04:47 | -36.99467 | 149.91703 | 1531 ft | 122 kts | 190° |
| 2026-04-19 04:47 | -37.00311 | 149.91503 | 1524 ft | 124 kts | 189° |
| 2026-04-19 04:48 | -37.01160 | 149.91286 | 1508 ft | 125 kts | 191° |
| 2026-04-19 04:48 | -37.01997 | 149.91079 | 1529 ft | 122 kts | 189° |
| 2026-04-19 04:48 | -37.02839 | 149.90881 | 1511 ft | 123 kts | 190° |
| 2026-04-19 04:48 | -37.03673 | 149.90671 | 1508 ft | 120 kts | 191° |
| 2026-04-19 04:49 | -37.04498 | 149.90498 | 1542 ft | 121 kts | 184° |
| 2026-04-19 04:49 | -37.05354 | 149.90573 | 1529 ft | 126 kts | 174° |
| 2026-04-19 04:49 | -37.06234 | 149.90695 | 1519 ft | 128 kts | 174° |
| 2026-04-19 04:49 | -37.07117 | 149.90831 | 1550 ft | 127 kts | 171° |
| 2026-04-19 04:50 | -37.07986 | 149.90941 | 1541 ft | 122 kts | 191° |
| 2026-04-19 04:50 | -37.08773 | 149.90644 | 1526 ft | 115 kts | 197° |
| 2026-04-19 04:50 | -37.09521 | 149.90370 | 1547 ft | 111 kts | 197° |
| 2026-04-19 04:50 | -37.10259 | 149.90079 | 1533 ft | 111 kts | 196° |
| 2026-04-19 04:51 | -37.11015 | 149.89852 | 1488 ft | 112 kts | 193° |
| 2026-04-19 04:51 | -37.11763 | 149.89591 | 1501 ft | 112 kts | 195° |
| 2026-04-19 04:51 | -37.12513 | 149.89323 | 1487 ft | 111 kts | 195° |
| 2026-04-19 04:51 | -37.13262 | 149.89060 | 1517 ft | 113 kts | 195° |
| 2026-04-19 04:52 | -37.14032 | 149.88796 | 1500 ft | 117 kts | 194° |
| 2026-04-19 04:52 | -37.14818 | 149.88526 | 1454 ft | 117 kts | 195° |
| 2026-04-19 04:52 | -37.15599 | 149.88244 | 1480 ft | 118 kts | 196° |
| 2026-04-19 04:52 | -37.16397 | 149.87937 | 1491 ft | 119 kts | 196° |
| 2026-04-19 04:53 | -37.17199 | 149.87634 | 1478 ft | 121 kts | 196° |
| 2026-04-19 04:53 | -37.18000 | 149.87334 | 1461 ft | 118 kts | 195° |
| 2026-04-19 04:53 | -37.18782 | 149.87066 | 1541 ft | 115 kts | 194° |
| 2026-04-19 04:53 | -37.19545 | 149.86802 | 1562 ft | 117 kts | 195° |
| 2026-04-19 04:54 | -37.20335 | 149.86492 | 1545 ft | 121 kts | 195° |
| 2026-04-19 04:54 | -37.21169 | 149.86191 | 1551 ft | 125 kts | 194° |
| 2026-04-19 04:54 | -37.22012 | 149.85904 | 1507 ft | 128 kts | 195° |
| 2026-04-19 04:54 | -37.22855 | 149.85567 | 1508 ft | 126 kts | 196° |
| 2026-04-19 04:55 | -37.23689 | 149.85243 | 1515 ft | 124 kts | 195° |
| 2026-04-19 04:55 | -37.24511 | 149.84949 | 1525 ft | 122 kts | 195° |
| 2026-04-19 04:55 | -37.25320 | 149.84667 | 1530 ft | 120 kts | 194° |
| 2026-04-19 04:55 | -37.26117 | 149.84374 | 1502 ft | 119 kts | 195° |
| 2026-04-19 04:56 | -37.26913 | 149.84097 | 1525 ft | 119 kts | 195° |
| 2026-04-19 04:56 | -37.27709 | 149.83767 | 1514 ft | 122 kts | 199° |
| 2026-04-19 04:56 | -37.28521 | 149.83466 | 1531 ft | 122 kts | 195° |
| 2026-04-19 04:56 | -37.29341 | 149.83170 | 1530 ft | 123 kts | 195° |
| 2026-04-19 04:57 | -37.30171 | 149.82897 | 1488 ft | 123 kts | 195° |
| 2026-04-19 04:57 | -37.30986 | 149.82609 | 1516 ft | 121 kts | 197° |
| 2026-04-19 04:57 | -37.31781 | 149.82329 | 1501 ft | 120 kts | 195° |
| 2026-04-19 04:57 | -37.32590 | 149.82072 | 1484 ft | 120 kts | 195° |
| 2026-04-19 04:58 | -37.33399 | 149.81805 | 1500 ft | 121 kts | 195° |
| 2026-04-19 04:58 | -37.34218 | 149.81520 | 1491 ft | 122 kts | 194° |
| 2026-04-19 04:58 | -37.35051 | 149.81223 | 1507 ft | 127 kts | 195° |
| 2026-04-19 04:58 | -37.35905 | 149.80921 | 1533 ft | 128 kts | 195° |
| 2026-04-19 04:59 | -37.36769 | 149.80617 | 1489 ft | 129 kts | 194° |
| 2026-04-19 04:59 | -37.37620 | 149.80319 | 1512 ft | 126 kts | 195° |
| 2026-04-19 04:59 | -37.38454 | 149.80026 | 1504 ft | 122 kts | 197° |
| 2026-04-19 04:59 | -37.39258 | 149.79773 | 1556 ft | 118 kts | 193° |
| 2026-04-19 05:00 | -37.40057 | 149.79531 | 1555 ft | 119 kts | 195° |
| 2026-04-19 05:00 | -37.40847 | 149.79239 | 1539 ft | 118 kts | 197° |
| 2026-04-19 05:00 | -37.41640 | 149.78965 | 1564 ft | 119 kts | 194° |
| 2026-04-19 05:00 | -37.42451 | 149.78673 | 1542 ft | 123 kts | 194° |
| 2026-04-19 05:01 | -37.43272 | 149.78369 | 1551 ft | 122 kts | 198° |
| 2026-04-19 05:01 | -37.44088 | 149.78053 | 1577 ft | 123 kts | 197° |
| 2026-04-19 05:01 | -37.44921 | 149.77765 | 1543 ft | 124 kts | 194° |
| 2026-04-19 05:01 | -37.45741 | 149.77495 | 1555 ft | 120 kts | 196° |
| 2026-04-19 05:02 | -37.46526 | 149.77208 | 1533 ft | 115 kts | 198° |
| 2026-04-19 05:02 | -37.47285 | 149.76937 | 1551 ft | 113 kts | 196° |
| 2026-04-19 05:02 | -37.48057 | 149.76675 | 1539 ft | 114 kts | 196° |
| 2026-04-19 05:02 | -37.48823 | 149.76412 | 1556 ft | 115 kts | 196° |
| 2026-04-19 05:03 | -37.49611 | 149.76144 | 1555 ft | 119 kts | 195° |
| 2026-04-19 05:03 | -37.50423 | 149.75885 | 1493 ft | 122 kts | 194° |
| 2026-04-19 05:03 | -37.51241 | 149.75641 | 1462 ft | 120 kts | 195° |
| 2026-04-19 05:03 | -37.51982 | 149.75236 | 1525 ft | 113 kts | 210° |
| 2026-04-19 05:04 | -37.52650 | 149.74683 | 1548 ft | 114 kts | 213° |
| 2026-04-19 05:04 | -37.53346 | 149.74317 | 1655 ft | 114 kts | 194° |
| 2026-04-19 05:04 | -37.54163 | 149.74209 | 1580 ft | 124 kts | 184° |
| 2026-04-19 05:04 | -37.55035 | 149.74045 | 1507 ft | 128 kts | 191° |
| 2026-04-19 05:05 | -37.55859 | 149.73787 | 1613 ft | 117 kts | 195° |
| 2026-04-19 05:05 | -37.56654 | 149.73529 | 1580 ft | 119 kts | 194° |
| 2026-04-19 05:05 | -37.57460 | 149.73239 | 1460 ft | 126 kts | 201° |
| 2026-04-19 05:05 | -37.58126 | 149.72723 | 1640 ft | 103 kts | 210° |
| 2026-04-19 05:06 | -37.58792 | 149.72264 | 1600 ft | 115 kts | 216° |
| 2026-04-19 05:06 | -37.59293 | 149.71522 | 1697 ft | 102 kts | 232° |
| 2026-04-19 05:06 | -37.59738 | 149.70832 | 1727 ft | 105 kts | 224° |
| 2026-04-19 05:06 | -37.60312 | 149.70162 | 1639 ft | 118 kts | 221° |
| 2026-04-19 05:07 | -37.60913 | 149.69440 | 1634 ft | 120 kts | 221° |
| 2026-04-19 05:07 | -37.61532 | 149.68710 | 1596 ft | 124 kts | 220° |
| 2026-04-19 05:07 | -37.62171 | 149.67949 | 1507 ft | 127 kts | 221° |
| 2026-04-19 05:07 | -37.62807 | 149.67199 | 1497 ft | 124 kts | 220° |
| 2026-04-19 05:08 | -37.63443 | 149.66465 | 1481 ft | 124 kts | 220° |
| 2026-04-19 05:08 | -37.64678 | 149.64961 | 1503 ft | 123 kts | 220° |
| 2026-04-19 05:08 | -37.65320 | 149.64280 | 1519 ft | 121 kts | 219° |
| 2026-04-19 05:09 | -37.65888 | 149.63512 | 1487 ft | 124 kts | 245° |
| 2026-04-19 05:09 | -37.66160 | 149.62520 | 1563 ft | 118 kts | 244° |
| 2026-04-19 05:09 | -37.66465 | 149.61548 | 1510 ft | 119 kts | 244° |
| 2026-04-19 05:09 | -37.66747 | 149.60579 | 1537 ft | 117 kts | 245° |
| 2026-04-19 05:10 | -37.67047 | 149.59635 | 1577 ft | 116 kts | 245° |
| 2026-04-19 05:10 | -37.67367 | 149.58670 | 1588 ft | 123 kts | 244° |
| 2026-04-19 05:10 | -37.67689 | 149.57626 | 1524 ft | 131 kts | 244° |
| 2026-04-19 05:10 | -37.68006 | 149.56540 | 1454 ft | 133 kts | 246° |
| 2026-04-19 05:11 | -37.68332 | 149.55439 | 1398 ft | 133 kts | 244° |
| 2026-04-19 05:11 | -37.68661 | 149.54347 | 1340 ft | 133 kts | 246° |
| 2026-04-19 05:11 | -37.68994 | 149.53257 | 1293 ft | 132 kts | 244° |
| 2026-04-19 05:11 | -37.69328 | 149.52182 | 1213 ft | 131 kts | 244° |
| 2026-04-19 05:12 | -37.69803 | 149.51342 | 1411 ft | 110 kts | 225° |
| 2026-04-19 05:12 | -37.69989 | 149.50346 | 1264 ft | 124 kts | 257° |
| 2026-04-19 05:12 | -37.70241 | 149.49382 | 1393 ft | 110 kts | 228° |
| 2026-04-19 05:12 | -37.70622 | 149.48533 | 1437 ft | 113 kts | 248° |
| 2026-04-19 05:13 | -37.70872 | 149.47585 | 1500 ft | 118 kts | 246° |
| 2026-04-19 05:13 | -37.71115 | 149.46573 | 1508 ft | 121 kts | 256° |
| 2026-04-19 05:13 | -37.71292 | 149.45526 | 1537 ft | 124 kts | 254° |
| 2026-04-19 05:13 | -37.71463 | 149.44439 | 1555 ft | 130 kts | 255° |
| 2026-04-19 05:14 | -37.71636 | 149.43295 | 1543 ft | 134 kts | 251° |
| 2026-04-19 05:14 | -37.71830 | 149.42177 | 1543 ft | 131 kts | 254° |
| 2026-04-19 05:14 | -37.72027 | 149.41039 | 1501 ft | 133 kts | 255° |
| 2026-04-19 05:14 | -37.72186 | 149.39890 | 1569 ft | 130 kts | 258° |
| 2026-04-19 05:15 | -37.72320 | 149.38776 | 1610 ft | 131 kts | 258° |
| 2026-04-19 05:15 | -37.72454 | 149.37639 | 1554 ft | 131 kts | 254° |
| 2026-04-19 05:15 | -37.72592 | 149.36527 | 1544 ft | 125 kts | 258° |
| 2026-04-19 05:15 | -37.72728 | 149.35454 | 1531 ft | 121 kts | 256° |
| 2026-04-19 05:16 | -37.72842 | 149.34407 | 1537 ft | 122 kts | 258° |
| 2026-04-19 05:16 | -37.72977 | 149.33384 | 1597 ft | 118 kts | 253° |
| 2026-04-19 05:16 | -37.73116 | 149.32336 | 1572 ft | 123 kts | 257° |
| 2026-04-19 05:16 | -37.73242 | 149.31252 | 1489 ft | 125 kts | 258° |
| 2026-04-19 05:17 | -37.73397 | 149.30200 | 1533 ft | 121 kts | 254° |
| 2026-04-19 05:17 | -37.73563 | 149.29155 | 1536 ft | 121 kts | 253° |
| 2026-04-19 05:17 | -37.73741 | 149.28108 | 1512 ft | 122 kts | 254° |
| 2026-04-19 05:17 | -37.73933 | 149.27075 | 1505 ft | 123 kts | 252° |
| 2026-04-19 05:18 | -37.74148 | 149.26010 | 1449 ft | 129 kts | 251° |
| 2026-04-19 05:18 | -37.74391 | 149.24889 | 1366 ft | 130 kts | 250° |
| 2026-04-19 05:18 | -37.74646 | 149.23822 | 1401 ft | 127 kts | 251° |
| 2026-04-19 05:18 | -37.74841 | 149.22736 | 1398 ft | 125 kts | 255° |
| 2026-04-19 05:19 | -37.75011 | 149.21678 | 1443 ft | 121 kts | 253° |
| 2026-04-19 05:19 | -37.75154 | 149.20636 | 1507 ft | 120 kts | 257° |
| 2026-04-19 05:19 | -37.75311 | 149.19576 | 1462 ft | 125 kts | 256° |
| 2026-04-19 05:19 | -37.75464 | 149.18505 | 1492 ft | 123 kts | 256° |
| 2026-04-19 05:20 | -37.75650 | 149.17445 | 1493 ft | 126 kts | 254° |
| 2026-04-19 05:20 | -37.75825 | 149.16351 | 1463 ft | 127 kts | 255° |
| 2026-04-19 05:20 | -37.76041 | 149.15260 | 1447 ft | 129 kts | 255° |
| 2026-04-19 05:20 | -37.76220 | 149.14140 | 1475 ft | 129 kts | 255° |
| 2026-04-19 05:21 | -37.76414 | 149.13041 | 1475 ft | 128 kts | 253° |
| 2026-04-19 05:21 | -37.76622 | 149.11960 | 1500 ft | 126 kts | 252° |
| 2026-04-19 05:21 | -37.76818 | 149.10877 | 1525 ft | 127 kts | 254° |
| 2026-04-19 05:21 | -37.77001 | 149.09782 | 1529 ft | 128 kts | 256° |
| 2026-04-19 05:22 | -37.77185 | 149.08679 | 1528 ft | 128 kts | 253° |
| 2026-04-19 05:22 | -37.77366 | 149.07577 | 1532 ft | 128 kts | 253° |
| 2026-04-19 05:22 | -37.77541 | 149.06476 | 1508 ft | 127 kts | 254° |
| 2026-04-19 05:22 | -37.77703 | 149.05388 | 1549 ft | 125 kts | 256° |
| 2026-04-19 05:23 | -37.77824 | 149.04300 | 1577 ft | 125 kts | 258° |
| 2026-04-19 05:23 | -37.77909 | 149.03573 | 1578 ft | 129 kts | 255° |
| 2026-04-19 05:23 | -37.78081 | 149.02431 | 1577 ft | 131 kts | 254° |
| 2026-04-19 05:23 | -37.78278 | 149.01302 | 1513 ft | 130 kts | 256° |
| 2026-04-19 05:24 | -37.78450 | 149.00219 | 1549 ft | 123 kts | 255° |
| 2026-04-19 05:24 | -37.78599 | 148.99168 | 1558 ft | 121 kts | 257° |
| 2026-04-19 05:24 | -37.78716 | 148.98111 | 1556 ft | 121 kts | 258° |
| 2026-04-19 05:24 | -37.78876 | 148.97052 | 1548 ft | 126 kts | 256° |
| 2026-04-19 05:25 | -37.79053 | 148.95938 | 1499 ft | 132 kts | 256° |
| 2026-04-19 05:25 | -37.79231 | 148.94790 | 1470 ft | 133 kts | 256° |
| 2026-04-19 05:25 | -37.79401 | 148.93653 | 1483 ft | 131 kts | 256° |
| 2026-04-19 05:25 | -37.79583 | 148.92532 | 1488 ft | 129 kts | 255° |
| 2026-04-19 05:26 | -37.79784 | 148.91429 | 1480 ft | 128 kts | 252° |
| 2026-04-19 05:26 | -37.79968 | 148.90336 | 1520 ft | 127 kts | 254° |
| 2026-04-19 05:26 | -37.80127 | 148.89245 | 1562 ft | 126 kts | 257° |
| 2026-04-19 05:26 | -37.80266 | 148.88148 | 1587 ft | 127 kts | 258° |
| 2026-04-19 05:27 | -37.80437 | 148.87050 | 1615 ft | 127 kts | 254° |
| 2026-04-19 05:27 | -37.80652 | 148.85960 | 1591 ft | 130 kts | 252° |
| 2026-04-19 05:27 | -37.80844 | 148.84835 | 1545 ft | 129 kts | 253° |
| 2026-04-19 05:27 | -37.81032 | 148.83741 | 1580 ft | 126 kts | 253° |
| 2026-04-19 05:28 | -37.81234 | 148.82670 | 1577 ft | 124 kts | 252° |
| 2026-04-19 05:28 | -37.81445 | 148.81611 | 1586 ft | 124 kts | 253° |
| 2026-04-19 05:28 | -37.81661 | 148.80556 | 1615 ft | 124 kts | 254° |
| 2026-04-19 05:28 | -37.81868 | 148.79497 | 1652 ft | 124 kts | 254° |
| 2026-04-19 05:29 | -37.82056 | 148.78438 | 1678 ft | 123 kts | 254° |
| 2026-04-19 05:29 | -37.82225 | 148.77375 | 1719 ft | 123 kts | 255° |
| 2026-04-19 05:29 | -37.82375 | 148.76317 | 1723 ft | 124 kts | 258° |
| 2026-04-19 05:29 | -37.82508 | 148.75233 | 1739 ft | 125 kts | 260° |
| 2026-04-19 05:30 | -37.82621 | 148.74129 | 1761 ft | 127 kts | 262° |
| 2026-04-19 05:30 | -37.82715 | 148.73011 | 1782 ft | 128 kts | 263° |
| 2026-04-19 05:30 | -37.82790 | 148.71881 | 1807 ft | 129 kts | 264° |
| 2026-04-19 05:30 | -37.82844 | 148.70744 | 1846 ft | 130 kts | 265° |
| 2026-04-19 05:31 | -37.82879 | 148.69597 | 1879 ft | 131 kts | 266° |
| 2026-04-19 05:31 | -37.82893 | 148.68442 | 1912 ft | 131 kts | 268° |
| 2026-04-19 05:31 | -37.82888 | 148.67286 | 1950 ft | 132 kts | 269° |
| 2026-04-19 05:31 | -37.82801 | 148.66094 | 1825 ft | 143 kts | 279° |
| 2026-04-19 05:32 | -37.82542 | 148.64862 | 1719 ft | 145 kts | 284° |
| 2026-04-19 05:32 | -37.82228 | 148.63645 | 1605 ft | 146 kts | 288° |
| 2026-04-19 05:32 | -37.81891 | 148.62440 | 1478 ft | 145 kts | 286° |
| 2026-04-19 05:32 | -37.81940 | 148.61310 | 1541 ft | 133 kts | 258° |
| 2026-04-19 05:33 | -37.82082 | 148.60052 | 1172 ft | 149 kts | 261° |
| 2026-04-19 05:33 | -37.82199 | 148.58793 | 1121 ft | 140 kts | 260° |
| 2026-04-19 05:33 | -37.82352 | 148.57610 | 1115 ft | 133 kts | 257° |
| 2026-04-19 05:33 | -37.82541 | 148.56482 | 1129 ft | 129 kts | 254° |
| 2026-04-19 05:34 | -37.82764 | 148.55400 | 1198 ft | 126 kts | 251° |
| 2026-04-19 05:34 | -37.83020 | 148.54354 | 1269 ft | 124 kts | 248° |
| 2026-04-19 05:34 | -37.83303 | 148.53346 | 1325 ft | 122 kts | 246° |
| 2026-04-19 05:34 | -37.83621 | 148.52353 | 1398 ft | 122 kts | 243° |
| 2026-04-19 05:35 | -37.83970 | 148.51380 | 1478 ft | 121 kts | 242° |
| 2026-04-19 05:35 | -37.84350 | 148.50428 | 1590 ft | 121 kts | 238° |
| 2026-04-19 05:35 | -37.84754 | 148.49494 | 1695 ft | 121 kts | 239° |
| 2026-04-19 05:35 | -37.85096 | 148.48504 | 1776 ft | 124 kts | 247° |
| 2026-04-19 05:36 | -37.85336 | 148.47437 | 1823 ft | 128 kts | 255° |
| 2026-04-19 05:36 | -37.85495 | 148.46310 | 1797 ft | 135 kts | 258° |
| 2026-04-19 05:36 | -37.85669 | 148.45070 | 1519 ft | 150 kts | 257° |
| 2026-04-19 05:36 | -37.85878 | 148.43733 | 1141 ft | 159 kts | 256° |
| 2026-04-19 05:37 | -37.86121 | 148.42349 | 711 ft | 163 kts | 254° |
| 2026-04-19 05:37 | -37.86395 | 148.40989 | 433 ft | 155 kts | 252° |
| 2026-04-19 05:37 | -37.86638 | 148.39777 | 591 ft | 130 kts | 254° |
| 2026-04-19 05:37 | -37.86819 | 148.38721 | 834 ft | 114 kts | 259° |
| 2026-04-19 05:38 | -37.86637 | 148.37755 | 982 ft | 118 kts | 296° |
| 2026-04-19 05:38 | -37.86276 | 148.36779 | 963 ft | 129 kts | 294° |
| 2026-04-19 05:38 | -37.85847 | 148.35730 | 893 ft | 137 kts | 297° |
| 2026-04-19 05:38 | -37.85364 | 148.34684 | 868 ft | 137 kts | 299° |
| 2026-04-19 05:39 | -37.84872 | 148.33650 | 914 ft | 136 kts | 297° |
| 2026-04-19 05:39 | -37.84467 | 148.32587 | 959 ft | 133 kts | 290° |
| 2026-04-19 05:39 | -37.84169 | 148.31476 | 938 ft | 135 kts | 282° |
| 2026-04-19 05:39 | -37.83966 | 148.30301 | 925 ft | 139 kts | 277° |
| 2026-04-19 05:40 | -37.83771 | 148.29097 | 897 ft | 141 kts | 279° |
| 2026-04-19 05:40 | -37.83551 | 148.27878 | 826 ft | 142 kts | 280° |
| 2026-04-19 05:40 | -37.83365 | 148.26648 | 739 ft | 142 kts | 276° |
| 2026-04-19 05:40 | -37.83277 | 148.25417 | 718 ft | 138 kts | 270° |
| 2026-04-19 05:41 | -37.83296 | 148.24213 | 724 ft | 136 kts | 264° |
| 2026-04-19 05:41 | -37.83415 | 148.23041 | 732 ft | 133 kts | 258° |
| 2026-04-19 05:41 | -37.83587 | 148.21896 | 732 ft | 132 kts | 256° |
| 2026-04-19 05:41 | -37.83777 | 148.20767 | 751 ft | 131 kts | 255° |
| 2026-04-19 05:42 | -37.83961 | 148.19644 | 786 ft | 131 kts | 257° |
| 2026-04-19 05:42 | -37.84133 | 148.18512 | 830 ft | 131 kts | 257° |
| 2026-04-19 05:42 | -37.84291 | 148.17370 | 866 ft | 132 kts | 257° |
| 2026-04-19 05:42 | -37.84434 | 148.16231 | 894 ft | 133 kts | 259° |
| 2026-04-19 05:43 | -37.84569 | 148.15055 | 922 ft | 133 kts | 259° |
| 2026-04-19 05:43 | -37.84702 | 148.13893 | 949 ft | 133 kts | 260° |
| 2026-04-19 05:43 | -37.84837 | 148.12745 | 1004 ft | 133 kts | 260° |
| 2026-04-19 05:43 | -37.84995 | 148.11589 | 1050 ft | 133 kts | 257° |
| 2026-04-19 05:44 | -37.85203 | 148.10444 | 1129 ft | 134 kts | 253° |
| 2026-04-19 05:44 | -37.85490 | 148.09324 | 1177 ft | 134 kts | 246° |
| 2026-04-19 05:44 | -37.85850 | 148.08208 | 1122 ft | 139 kts | 245° |
| 2026-04-19 05:44 | -37.86205 | 148.07057 | 1081 ft | 141 kts | 247° |
| 2026-04-19 05:45 | -37.86541 | 148.05884 | 1023 ft | 143 kts | 248° |
| 2026-04-19 05:45 | -37.86861 | 148.04688 | 1009 ft | 144 kts | 249° |
| 2026-04-19 05:45 | -37.87163 | 148.03479 | 968 ft | 144 kts | 250° |
| 2026-04-19 05:45 | -37.87445 | 148.02261 | 921 ft | 144 kts | 252° |
| 2026-04-19 05:46 | -37.87726 | 148.01050 | 855 ft | 143 kts | 248° |
| 2026-04-19 05:46 | -37.88043 | 147.99860 | 830 ft | 141 kts | 249° |
| 2026-04-19 05:46 | -37.88365 | 147.98695 | 822 ft | 140 kts | 248° |
| 2026-04-19 05:46 | -37.88695 | 147.97548 | 805 ft | 138 kts | 247° |
| 2026-04-19 05:47 | -37.89047 | 147.96417 | 792 ft | 137 kts | 244° |
| 2026-04-19 05:47 | -37.89420 | 147.95304 | 792 ft | 137 kts | 244° |
| 2026-04-19 05:47 | -37.89803 | 147.94200 | 794 ft | 137 kts | 245° |
| 2026-04-19 05:47 | -37.90135 | 147.93067 | 785 ft | 138 kts | 247° |
| 2026-04-19 05:48 | -37.90443 | 147.91915 | 829 ft | 139 kts | 249° |
| 2026-04-19 05:48 | -37.90734 | 147.90754 | 877 ft | 137 kts | 250° |
| 2026-04-19 05:48 | -37.91024 | 147.89620 | 967 ft | 134 kts | 250° |
| 2026-04-19 05:48 | -37.91325 | 147.88512 | 1056 ft | 132 kts | 248° |
| 2026-04-19 05:49 | -37.91638 | 147.87426 | 1145 ft | 130 kts | 249° |
| 2026-04-19 05:49 | -37.91958 | 147.86370 | 1205 ft | 130 kts | 247° |
| 2026-04-19 05:49 | -37.92299 | 147.85299 | 1306 ft | 129 kts | 246° |
| 2026-04-19 05:49 | -37.92643 | 147.84271 | 1422 ft | 129 kts | 245° |
| 2026-04-19 05:50 | -37.93005 | 147.83236 | 1527 ft | 128 kts | 245° |
| 2026-04-19 05:50 | -37.93379 | 147.82212 | 1635 ft | 128 kts | 244° |
| 2026-04-19 05:50 | -37.93767 | 147.81192 | 1779 ft | 129 kts | 243° |
| 2026-04-19 05:50 | -37.94173 | 147.80171 | 1893 ft | 134 kts | 242° |
| 2026-04-19 05:51 | -37.94627 | 147.79076 | 1784 ft | 146 kts | 240° |
| 2026-04-19 05:51 | -37.95135 | 147.77926 | 1595 ft | 153 kts | 238° |
| 2026-04-19 05:51 | -37.95523 | 147.76664 | 1362 ft | 156 kts | 256° |
| 2026-04-19 05:51 | -37.95755 | 147.75369 | 1334 ft | 146 kts | 256° |
| 2026-04-19 05:52 | -37.96013 | 147.74156 | 1368 ft | 140 kts | 253° |
| 2026-04-19 05:52 | -37.96300 | 147.72994 | 1449 ft | 136 kts | 251° |
| 2026-04-19 05:52 | -37.96622 | 147.71869 | 1483 ft | 136 kts | 247° |
| 2026-04-19 05:52 | -37.96987 | 147.70726 | 1379 ft | 144 kts | 246° |
| 2026-04-19 05:53 | -37.97319 | 147.69515 | 1322 ft | 145 kts | 251° |
| 2026-04-19 05:53 | -37.97612 | 147.68295 | 1281 ft | 145 kts | 251° |
| 2026-04-19 05:53 | -37.97952 | 147.67095 | 1219 ft | 144 kts | 248° |
| 2026-04-19 05:53 | -37.98324 | 147.65917 | 1178 ft | 144 kts | 246° |
| 2026-04-19 05:54 | -37.98710 | 147.64746 | 1141 ft | 143 kts | 246° |
| 2026-04-19 05:54 | -37.99107 | 147.63583 | 1088 ft | 144 kts | 245° |
| 2026-04-19 05:54 | -37.99516 | 147.62430 | 1032 ft | 142 kts | 245° |
| 2026-04-19 05:54 | -37.99911 | 147.61318 | 1061 ft | 138 kts | 245° |
| 2026-04-19 05:55 | -38.00290 | 147.60209 | 1110 ft | 137 kts | 247° |
| 2026-04-19 05:55 | -38.00607 | 147.59054 | 1115 ft | 140 kts | 253° |
| 2026-04-19 05:55 | -38.00859 | 147.57854 | 1103 ft | 141 kts | 254° |
| 2026-04-19 05:55 | -38.01102 | 147.56654 | 1091 ft | 140 kts | 255° |
| 2026-04-19 05:56 | -38.01331 | 147.55472 | 1107 ft | 137 kts | 256° |
| 2026-04-19 05:56 | -38.01556 | 147.54313 | 1163 ft | 135 kts | 256° |
| 2026-04-19 05:56 | -38.01787 | 147.53157 | 1258 ft | 135 kts | 256° |
| 2026-04-19 05:56 | -38.01992 | 147.51986 | 1319 ft | 137 kts | 258° |
| 2026-04-19 05:57 | -38.02166 | 147.50800 | 1333 ft | 139 kts | 258° |
| 2026-04-19 05:57 | -38.02411 | 147.49574 | 1177 ft | 147 kts | 252° |
| 2026-04-19 05:57 | -38.02707 | 147.48325 | 1065 ft | 147 kts | 252° |
| 2026-04-19 05:57 | -38.02993 | 147.47097 | 1048 ft | 143 kts | 253° |
| 2026-04-19 05:58 | -38.03260 | 147.45891 | 1034 ft | 141 kts | 254° |
| 2026-04-19 05:58 | -38.03527 | 147.44702 | 1048 ft | 140 kts | 253° |
| 2026-04-19 05:58 | -38.03798 | 147.43490 | 1007 ft | 143 kts | 252° |
| 2026-04-19 05:58 | -38.04075 | 147.42292 | 1027 ft | 140 kts | 254° |
| 2026-04-19 05:59 | -38.04240 | 147.41128 | 1034 ft | 125 kts | 261° |
| 2026-04-19 05:59 | -38.04308 | 147.40055 | 1079 ft | 116 kts | 270° |
| 2026-04-19 05:59 | -38.04324 | 147.39017 | 1075 ft | 125 kts | 268° |
| 2026-04-19 05:59 | -38.04386 | 147.37871 | 1027 ft | 134 kts | 263° |
| 2026-04-19 06:00 | -38.04487 | 147.36693 | 970 ft | 136 kts | 263° |
| 2026-04-19 06:00 | -38.04580 | 147.35528 | 1002 ft | 126 kts | 264° |
| 2026-04-19 06:00 | -38.04631 | 147.34456 | 997 ft | 120 kts | 271° |
| 2026-04-19 06:00 | -38.04653 | 147.33443 | 1027 ft | 117 kts | 266° |
| 2026-04-19 06:01 | -38.04659 | 147.32404 | 1036 ft | 112 kts | 271° |
| 2026-04-19 06:01 | -38.04660 | 147.31399 | 1006 ft | 122 kts | 270° |
| 2026-04-19 06:01 | -38.04656 | 147.30351 | 1044 ft | 112 kts | 269° |
| 2026-04-19 06:01 | -38.04761 | 147.29341 | 1039 ft | 122 kts | 254° |
| 2026-04-19 06:02 | -38.05015 | 147.28302 | 1015 ft | 123 kts | 249° |
| 2026-04-19 06:02 | -38.05301 | 147.27273 | 1023 ft | 124 kts | 251° |
| 2026-04-19 06:02 | -38.05557 | 147.26242 | 1003 ft | 120 kts | 254° |
| 2026-04-19 06:02 | -38.05777 | 147.25266 | 1016 ft | 115 kts | 253° |
| 2026-04-19 06:03 | -38.06004 | 147.24285 | 1018 ft | 117 kts | 253° |
| 2026-04-19 06:03 | -38.06248 | 147.23265 | 773 ft | 124 kts | 250° |
| 2026-04-19 06:03 | -38.06484 | 147.22296 | 635 ft | 100 kts | 256° |
| 2026-04-19 06:03 | -38.06671 | 147.21370 | 538 ft | 115 kts | 255° |
| 2026-04-19 06:04 | -38.06902 | 147.20403 | 525 ft | 116 kts | 251° |
| 2026-04-19 06:04 | -38.07146 | 147.19409 | 558 ft | 122 kts | 252° |
| 2026-04-19 06:04 | -38.07379 | 147.18379 | 506 ft | 119 kts | 251° |
| 2026-04-19 06:04 | -38.07640 | 147.17376 | 516 ft | 119 kts | 251° |
| 2026-04-19 06:05 | -38.07850 | 147.16533 | 559 ft | 83 kts | 259° |
| 2026-04-19 06:05 | -38.07819 | 147.15873 | 527 ft | 80 kts | 278° |
| 2026-04-19 06:05 | -38.07750 | 147.15100 | 539 ft | 88 kts | 276° |
| 2026-04-19 06:05 | -38.07670 | 147.14393 | 561 ft | 76 kts | 281° |
| 2026-04-19 06:06 | -38.07583 | 147.13616 | 505 ft | 93 kts | 275° |
| 2026-04-19 06:06 | -38.07528 | 147.12833 | 527 ft | 86 kts | 277° |
| 2026-04-19 06:06 | -38.07507 | 147.12075 | 536 ft | 85 kts | 258° |
| 2026-04-19 06:06 | -38.07808 | 147.11464 | 601 ft | 87 kts | 219° |
| 2026-04-19 06:07 | -38.08352 | 147.11109 | 570 ft | 93 kts | 193° |
| 2026-04-19 06:07 | -38.08996 | 147.11055 | 606 ft | 89 kts | 158° |
| 2026-04-19 06:07 | -38.09474 | 147.11542 | 458 ft | 83 kts | 112° |
| 2026-04-19 06:07 | -38.09630 | 147.12157 | 361 ft | 59 kts | 98° |
| 2026-04-19 06:08 | -38.09675 | 147.12586 | 199 ft | 36 kts | 95° |
| 2026-04-19 06:08 | -38.09699 | 147.12776 | 103 ft | 20 kts | 97° |
| 2026-04-19 06:08 | -38.09715 | 147.12929 | 48 ft | 20 kts | 97° |
| 2026-04-19 06:08 | -38.09738 | 147.13101 | 38 ft | 9 kts | 107° |
| 2026-04-19 06:09 | -38.09755 | 147.13126 | 41 ft | 7 kts | 160° |
| 2026-04-19 06:09 | -38.09828 | 147.13112 | 34 ft | 6 kts | 188° |
| 2026-04-19 06:09 | -38.09837 | 147.13112 | 31 ft | 1 kts | 188° |
| 2026-04-19 06:09 | -38.09843 | 147.13112 | 24 ft | 0 kts | 186° |